sensor_id;sensor_type;location;lat;lon;timestamp;P1;durP1;ratioP1;P2;durP2;ratioP2
25207;SDS011;13153;52.316;21.166;2024-03-22T00:02:14;59.85;;;34.38;;
25207;SDS011;13153;52.316;21.166;2024-03-22T00:04:40;58.17;;;33.80;;
25207;SDS011;13153;52.316;21.166;2024-03-22T00:07:07;60.17;;;34.03;;
25207;SDS011;13153;52.316;21.166;2024-03-22T00:09:33;64.07;;;36.28;;
25207;SDS011;13153;52.316;21.166;2024-03-22T00:12:00;66.03;;;35.53;;
25207;SDS011;13153;52.316;21.166;2024-03-22T00:14:26;63.30;;;33.80;;
25207;SDS011;13153;52.316;21.166;2024-03-22T00:16:53;62.08;;;36.25;;
25207;SDS011;13153;52.316;21.166;2024-03-22T00:19:20;61.53;;;35.50;;
25207;SDS011;13153;52.316;21.166;2024-03-22T00:21:46;60.97;;;36.38;;
25207;SDS011;13153;52.316;21.166;2024-03-22T00:24:13;62.22;;;35.85;;
25207;SDS011;13153;52.316;21.166;2024-03-22T00:26:39;68.95;;;37.95;;
25207;SDS011;13153;52.316;21.166;2024-03-22T00:29:06;68.47;;;37.65;;
25207;SDS011;13153;52.316;21.166;2024-03-22T00:31:32;64.15;;;36.28;;
25207;SDS011;13153;52.316;21.166;2024-03-22T00:33:58;69.93;;;36.78;;
25207;SDS011;13153;52.316;21.166;2024-03-22T00:36:27;60.97;;;36.13;;
25207;SDS011;13153;52.316;21.166;2024-03-22T00:38:54;64.30;;;34.92;;
25207;SDS011;13153;52.316;21.166;2024-03-22T00:41:22;63.05;;;36.00;;
25207;SDS011;13153;52.316;21.166;2024-03-22T00:43:48;66.22;;;37.42;;
25207;SDS011;13153;52.316;21.166;2024-03-22T00:46:15;65.07;;;36.60;;
25207;SDS011;13153;52.316;21.166;2024-03-22T00:48:42;67.18;;;37.50;;
25207;SDS011;13153;52.316;21.166;2024-03-22T00:51:08;66.20;;;37.25;;
25207;SDS011;13153;52.316;21.166;2024-03-22T00:53:35;62.30;;;35.92;;
25207;SDS011;13153;52.316;21.166;2024-03-22T00:56:02;73.35;;;37.97;;
25207;SDS011;13153;52.316;21.166;2024-03-22T00:58:29;68.38;;;39.45;;
25207;SDS011;13153;52.316;21.166;2024-03-22T01:00:58;68.20;;;37.45;;
25207;SDS011;13153;52.316;21.166;2024-03-22T01:03:25;62.65;;;37.10;;
25207;SDS011;13153;52.316;21.166;2024-03-22T01:05:52;67.07;;;38.42;;
25207;SDS011;13153;52.316;21.166;2024-03-22T01:08:19;71.72;;;40.35;;
25207;SDS011;13153;52.316;21.166;2024-03-22T01:10:46;72.35;;;38.88;;
25207;SDS011;13153;52.316;21.166;2024-03-22T01:13:13;66.60;;;38.67;;
25207;SDS011;13153;52.316;21.166;2024-03-22T01:15:39;66.75;;;38.22;;
25207;SDS011;13153;52.316;21.166;2024-03-22T01:18:06;67.20;;;39.50;;
25207;SDS011;13153;52.316;21.166;2024-03-22T01:20:33;71.07;;;39.00;;
25207;SDS011;13153;52.316;21.166;2024-03-22T01:22:59;66.68;;;39.65;;
25207;SDS011;13153;52.316;21.166;2024-03-22T01:25:27;72.15;;;39.22;;
25207;SDS011;13153;52.316;21.166;2024-03-22T01:27:55;67.20;;;39.13;;
25207;SDS011;13153;52.316;21.166;2024-03-22T01:30:22;66.05;;;38.38;;
25207;SDS011;13153;52.316;21.166;2024-03-22T01:32:49;66.32;;;38.15;;
25207;SDS011;13153;52.316;21.166;2024-03-22T01:35:15;63.90;;;38.60;;
25207;SDS011;13153;52.316;21.166;2024-03-22T01:37:42;69.93;;;40.53;;
25207;SDS011;13153;52.316;21.166;2024-03-22T01:40:10;68.35;;;39.45;;
25207;SDS011;13153;52.316;21.166;2024-03-22T01:42:38;70.20;;;40.25;;
25207;SDS011;13153;52.316;21.166;2024-03-22T01:45:05;72.18;;;40.85;;
25207;SDS011;13153;52.316;21.166;2024-03-22T01:47:31;72.82;;;41.22;;
25207;SDS011;13153;52.316;21.166;2024-03-22T01:49:59;72.38;;;42.30;;
25207;SDS011;13153;52.316;21.166;2024-03-22T01:52:27;70.68;;;41.25;;
25207;SDS011;13153;52.316;21.166;2024-03-22T01:54:54;74.00;;;43.40;;
25207;SDS011;13153;52.316;21.166;2024-03-22T01:57:21;76.88;;;45.15;;
25207;SDS011;13153;52.316;21.166;2024-03-22T01:59:48;75.10;;;44.30;;
25207;SDS011;13153;52.316;21.166;2024-03-22T02:02:19;82.60;;;45.03;;
25207;SDS011;13153;52.316;21.166;2024-03-22T02:04:45;77.28;;;44.72;;
25207;SDS011;13153;52.316;21.166;2024-03-22T02:07:15;83.15;;;46.45;;
25207;SDS011;13153;52.316;21.166;2024-03-22T02:09:41;84.90;;;46.10;;
25207;SDS011;13153;52.316;21.166;2024-03-22T02:12:09;86.45;;;48.53;;
25207;SDS011;13153;52.316;21.166;2024-03-22T02:14:36;84.65;;;48.28;;
25207;SDS011;13153;52.316;21.166;2024-03-22T02:17:02;87.72;;;48.13;;
25207;SDS011;13153;52.316;21.166;2024-03-22T02:19:29;88.10;;;49.78;;
25207;SDS011;13153;52.316;21.166;2024-03-22T02:21:56;88.53;;;49.67;;
25207;SDS011;13153;52.316;21.166;2024-03-22T02:24:22;101.40;;;54.22;;
25207;SDS011;13153;52.316;21.166;2024-03-22T02:26:49;95.47;;;50.33;;
25207;SDS011;13153;52.316;21.166;2024-03-22T02:29:15;102.10;;;51.80;;
25207;SDS011;13153;52.316;21.166;2024-03-22T02:31:42;90.55;;;49.20;;
25207;SDS011;13153;52.316;21.166;2024-03-22T02:34:09;92.88;;;50.40;;
25207;SDS011;13153;52.316;21.166;2024-03-22T02:36:35;94.93;;;50.72;;
25207;SDS011;13153;52.316;21.166;2024-03-22T02:39:01;96.40;;;51.70;;
25207;SDS011;13153;52.316;21.166;2024-03-22T02:41:29;92.50;;;50.25;;
25207;SDS011;13153;52.316;21.166;2024-03-22T02:43:55;99.63;;;53.15;;
25207;SDS011;13153;52.316;21.166;2024-03-22T02:46:22;109.68;;;56.15;;
25207;SDS011;13153;52.316;21.166;2024-03-22T02:48:49;100.15;;;52.53;;
25207;SDS011;13153;52.316;21.166;2024-03-22T02:51:16;101.95;;;52.33;;
25207;SDS011;13153;52.316;21.166;2024-03-22T02:53:43;98.78;;;50.47;;
25207;SDS011;13153;52.316;21.166;2024-03-22T02:56:10;97.70;;;50.10;;
25207;SDS011;13153;52.316;21.166;2024-03-22T02:58:36;104.32;;;50.65;;
25207;SDS011;13153;52.316;21.166;2024-03-22T03:01:03;95.43;;;50.35;;
25207;SDS011;13153;52.316;21.166;2024-03-22T03:03:30;110.70;;;53.13;;
25207;SDS011;13153;52.316;21.166;2024-03-22T03:05:57;117.35;;;54.83;;
25207;SDS011;13153;52.316;21.166;2024-03-22T03:08:24;104.43;;;51.13;;
25207;SDS011;13153;52.316;21.166;2024-03-22T03:10:52;102.88;;;50.53;;
25207;SDS011;13153;52.316;21.166;2024-03-22T03:13:19;103.25;;;49.47;;
25207;SDS011;13153;52.316;21.166;2024-03-22T03:15:46;119.97;;;53.92;;
25207;SDS011;13153;52.316;21.166;2024-03-22T03:18:13;103.63;;;48.88;;
25207;SDS011;13153;52.316;21.166;2024-03-22T03:20:39;105.75;;;50.70;;
25207;SDS011;13153;52.316;21.166;2024-03-22T03:23:06;99.22;;;47.08;;
25207;SDS011;13153;52.316;21.166;2024-03-22T03:25:33;101.47;;;48.33;;
25207;SDS011;13153;52.316;21.166;2024-03-22T03:27:59;99.80;;;46.40;;
25207;SDS011;13153;52.316;21.166;2024-03-22T03:30:26;99.72;;;46.22;;
25207;SDS011;13153;52.316;21.166;2024-03-22T03:32:52;93.45;;;46.80;;
25207;SDS011;13153;52.316;21.166;2024-03-22T03:35:18;97.28;;;45.95;;
25207;SDS011;13153;52.316;21.166;2024-03-22T03:37:44;91.50;;;46.13;;
25207;SDS011;13153;52.316;21.166;2024-03-22T03:40:11;95.63;;;45.60;;
25207;SDS011;13153;52.316;21.166;2024-03-22T03:42:37;93.90;;;45.50;;
25207;SDS011;13153;52.316;21.166;2024-03-22T03:45:04;93.85;;;46.60;;
25207;SDS011;13153;52.316;21.166;2024-03-22T03:47:30;97.03;;;45.03;;
25207;SDS011;13153;52.316;21.166;2024-03-22T03:49:58;97.20;;;46.22;;
25207;SDS011;13153;52.316;21.166;2024-03-22T03:52:24;92.97;;;44.85;;
25207;SDS011;13153;52.316;21.166;2024-03-22T03:54:50;93.30;;;44.47;;
25207;SDS011;13153;52.316;21.166;2024-03-22T03:57:16;91.25;;;44.10;;
25207;SDS011;13153;52.316;21.166;2024-03-22T03:59:42;85.78;;;42.90;;
25207;SDS011;13153;52.316;21.166;2024-03-22T04:02:09;93.63;;;45.35;;
25207;SDS011;13153;52.316;21.166;2024-03-22T04:04:35;85.68;;;41.60;;
25207;SDS011;13153;52.316;21.166;2024-03-22T04:07:02;81.40;;;41.50;;
25207;SDS011;13153;52.316;21.166;2024-03-22T04:09:29;85.95;;;42.30;;
25207;SDS011;13153;52.316;21.166;2024-03-22T04:11:57;82.35;;;41.03;;
25207;SDS011;13153;52.316;21.166;2024-03-22T04:14:27;80.50;;;41.63;;
25207;SDS011;13153;52.316;21.166;2024-03-22T04:16:53;81.82;;;42.85;;
25207;SDS011;13153;52.316;21.166;2024-03-22T04:19:21;83.05;;;42.00;;
25207;SDS011;13153;52.316;21.166;2024-03-22T04:21:49;85.55;;;41.38;;
25207;SDS011;13153;52.316;21.166;2024-03-22T04:24:16;83.72;;;43.83;;
25207;SDS011;13153;52.316;21.166;2024-03-22T04:26:43;80.88;;;41.13;;
25207;SDS011;13153;52.316;21.166;2024-03-22T04:29:11;81.70;;;41.40;;
25207;SDS011;13153;52.316;21.166;2024-03-22T04:31:38;87.65;;;43.08;;
25207;SDS011;13153;52.316;21.166;2024-03-22T04:34:05;82.93;;;41.15;;
25207;SDS011;13153;52.316;21.166;2024-03-22T04:36:32;80.72;;;41.70;;
25207;SDS011;13153;52.316;21.166;2024-03-22T04:39:00;78.32;;;38.92;;
25207;SDS011;13153;52.316;21.166;2024-03-22T04:41:28;82.45;;;40.92;;
25207;SDS011;13153;52.316;21.166;2024-03-22T04:43:56;90.28;;;44.10;;
25207;SDS011;13153;52.316;21.166;2024-03-22T04:46:24;94.28;;;48.08;;
25207;SDS011;13153;52.316;21.166;2024-03-22T04:48:52;83.85;;;43.47;;
25207;SDS011;13153;52.316;21.166;2024-03-22T04:51:19;90.75;;;42.83;;
25207;SDS011;13153;52.316;21.166;2024-03-22T04:53:46;80.90;;;40.72;;
25207;SDS011;13153;52.316;21.166;2024-03-22T04:56:14;82.90;;;41.03;;
25207;SDS011;13153;52.316;21.166;2024-03-22T04:58:41;88.32;;;41.25;;
25207;SDS011;13153;52.316;21.166;2024-03-22T05:01:07;81.30;;;41.40;;
25207;SDS011;13153;52.316;21.166;2024-03-22T05:03:34;78.88;;;41.03;;
25207;SDS011;13153;52.316;21.166;2024-03-22T05:06:01;83.05;;;41.83;;
25207;SDS011;13153;52.316;21.166;2024-03-22T05:08:28;79.65;;;41.38;;
25207;SDS011;13153;52.316;21.166;2024-03-22T05:10:56;88.00;;;43.97;;
25207;SDS011;13153;52.316;21.166;2024-03-22T05:13:23;83.78;;;43.30;;
25207;SDS011;13153;52.316;21.166;2024-03-22T05:15:51;91.07;;;42.67;;
25207;SDS011;13153;52.316;21.166;2024-03-22T05:18:18;84.40;;;40.28;;
25207;SDS011;13153;52.316;21.166;2024-03-22T05:20:45;81.28;;;40.92;;
25207;SDS011;13153;52.316;21.166;2024-03-22T05:23:12;85.50;;;43.22;;
25207;SDS011;13153;52.316;21.166;2024-03-22T05:25:41;81.25;;;40.50;;
25207;SDS011;13153;52.316;21.166;2024-03-22T05:28:09;87.93;;;43.53;;
25207;SDS011;13153;52.316;21.166;2024-03-22T05:30:36;83.65;;;41.33;;
25207;SDS011;13153;52.316;21.166;2024-03-22T05:33:03;81.70;;;41.00;;
25207;SDS011;13153;52.316;21.166;2024-03-22T05:35:31;82.63;;;41.78;;
25207;SDS011;13153;52.316;21.166;2024-03-22T05:37:58;77.18;;;40.13;;
25207;SDS011;13153;52.316;21.166;2024-03-22T05:40:25;84.60;;;42.97;;
25207;SDS011;13153;52.316;21.166;2024-03-22T05:42:52;80.95;;;42.58;;
25207;SDS011;13153;52.316;21.166;2024-03-22T05:45:19;81.50;;;41.03;;
25207;SDS011;13153;52.316;21.166;2024-03-22T05:47:45;83.32;;;42.65;;
25207;SDS011;13153;52.316;21.166;2024-03-22T05:50:11;85.32;;;42.50;;
25207;SDS011;13153;52.316;21.166;2024-03-22T05:52:39;84.38;;;41.33;;
25207;SDS011;13153;52.316;21.166;2024-03-22T05:55:07;80.63;;;41.40;;
25207;SDS011;13153;52.316;21.166;2024-03-22T05:57:34;81.93;;;40.78;;
25207;SDS011;13153;52.316;21.166;2024-03-22T06:00:00;72.30;;;39.83;;
25207;SDS011;13153;52.316;21.166;2024-03-22T06:02:27;76.10;;;39.40;;
25207;SDS011;13153;52.316;21.166;2024-03-22T06:04:53;80.47;;;41.05;;
25207;SDS011;13153;52.316;21.166;2024-03-22T06:07:20;75.32;;;38.78;;
25207;SDS011;13153;52.316;21.166;2024-03-22T06:09:47;76.25;;;39.40;;
25207;SDS011;13153;52.316;21.166;2024-03-22T06:12:14;75.47;;;39.35;;
25207;SDS011;13153;52.316;21.166;2024-03-22T06:14:41;73.05;;;37.60;;
25207;SDS011;13153;52.316;21.166;2024-03-22T06:17:11;74.20;;;38.33;;
25207;SDS011;13153;52.316;21.166;2024-03-22T06:19:38;70.13;;;36.95;;
25207;SDS011;13153;52.316;21.166;2024-03-22T06:22:05;70.10;;;37.28;;
25207;SDS011;13153;52.316;21.166;2024-03-22T06:24:32;73.38;;;38.50;;
25207;SDS011;13153;52.316;21.166;2024-03-22T06:26:59;70.88;;;38.08;;
25207;SDS011;13153;52.316;21.166;2024-03-22T06:29:26;70.63;;;36.55;;
25207;SDS011;13153;52.316;21.166;2024-03-22T06:31:52;71.68;;;37.47;;
25207;SDS011;13153;52.316;21.166;2024-03-22T06:34:19;63.88;;;34.17;;
25207;SDS011;13153;52.316;21.166;2024-03-22T06:36:46;63.63;;;35.25;;
25207;SDS011;13153;52.316;21.166;2024-03-22T06:39:13;60.42;;;32.95;;
25207;SDS011;13153;52.316;21.166;2024-03-22T06:41:40;66.68;;;34.95;;
25207;SDS011;13153;52.316;21.166;2024-03-22T06:44:06;66.88;;;36.63;;
25207;SDS011;13153;52.316;21.166;2024-03-22T06:46:37;71.03;;;40.58;;
25207;SDS011;13153;52.316;21.166;2024-03-22T06:49:05;72.72;;;39.78;;
25207;SDS011;13153;52.316;21.166;2024-03-22T06:51:31;67.47;;;38.65;;
25207;SDS011;13153;52.316;21.166;2024-03-22T06:53:58;81.35;;;45.17;;
25207;SDS011;13153;52.316;21.166;2024-03-22T06:56:24;94.25;;;56.38;;
25207;SDS011;13153;52.316;21.166;2024-03-22T06:58:51;83.28;;;49.90;;
25207;SDS011;13153;52.316;21.166;2024-03-22T07:01:18;73.43;;;41.50;;
25207;SDS011;13153;52.316;21.166;2024-03-22T07:03:46;68.03;;;38.28;;
25207;SDS011;13153;52.316;21.166;2024-03-22T07:06:13;78.20;;;43.17;;
25207;SDS011;13153;52.316;21.166;2024-03-22T07:08:40;69.32;;;39.55;;
25207;SDS011;13153;52.316;21.166;2024-03-22T07:11:07;71.20;;;38.60;;
25207;SDS011;13153;52.316;21.166;2024-03-22T07:13:36;61.55;;;33.85;;
25207;SDS011;13153;52.316;21.166;2024-03-22T07:16:04;63.65;;;34.00;;
25207;SDS011;13153;52.316;21.166;2024-03-22T07:18:32;64.13;;;33.85;;
25207;SDS011;13153;52.316;21.166;2024-03-22T07:20:59;59.72;;;32.08;;
25207;SDS011;13153;52.316;21.166;2024-03-22T07:23:28;61.90;;;31.25;;
25207;SDS011;13153;52.316;21.166;2024-03-22T07:25:55;58.05;;;31.73;;
25207;SDS011;13153;52.316;21.166;2024-03-22T07:28:21;60.63;;;32.97;;
25207;SDS011;13153;52.316;21.166;2024-03-22T07:30:48;59.20;;;30.88;;
25207;SDS011;13153;52.316;21.166;2024-03-22T07:33:14;62.25;;;33.00;;
25207;SDS011;13153;52.316;21.166;2024-03-22T07:35:43;64.15;;;32.80;;
25207;SDS011;13153;52.316;21.166;2024-03-22T07:38:10;62.08;;;32.15;;
25207;SDS011;13153;52.316;21.166;2024-03-22T07:40:36;59.65;;;32.33;;
25207;SDS011;13153;52.316;21.166;2024-03-22T07:43:03;59.45;;;31.00;;
25207;SDS011;13153;52.316;21.166;2024-03-22T07:45:31;57.88;;;30.27;;
25207;SDS011;13153;52.316;21.166;2024-03-22T07:48:00;62.35;;;31.60;;
25207;SDS011;13153;52.316;21.166;2024-03-22T07:50:27;61.22;;;31.80;;
25207;SDS011;13153;52.316;21.166;2024-03-22T07:52:54;64.43;;;33.47;;
25207;SDS011;13153;52.316;21.166;2024-03-22T07:55:20;64.25;;;35.65;;
25207;SDS011;13153;52.316;21.166;2024-03-22T07:57:48;63.90;;;33.58;;
25207;SDS011;13153;52.316;21.166;2024-03-22T08:00:15;61.58;;;32.45;;
25207;SDS011;13153;52.316;21.166;2024-03-22T08:02:42;66.50;;;35.08;;
25207;SDS011;13153;52.316;21.166;2024-03-22T08:05:09;62.88;;;30.83;;
25207;SDS011;13153;52.316;21.166;2024-03-22T08:07:36;59.63;;;32.35;;
25207;SDS011;13153;52.316;21.166;2024-03-22T08:10:04;54.28;;;30.15;;
25207;SDS011;13153;52.316;21.166;2024-03-22T08:12:31;56.00;;;28.60;;
25207;SDS011;13153;52.316;21.166;2024-03-22T08:14:57;51.97;;;27.58;;
25207;SDS011;13153;52.316;21.166;2024-03-22T08:17:23;52.40;;;26.73;;
25207;SDS011;13153;52.316;21.166;2024-03-22T08:19:50;50.20;;;25.85;;
25207;SDS011;13153;52.316;21.166;2024-03-22T08:22:17;49.53;;;26.65;;
25207;SDS011;13153;52.316;21.166;2024-03-22T08:24:43;51.33;;;27.05;;
25207;SDS011;13153;52.316;21.166;2024-03-22T08:27:10;51.83;;;28.42;;
25207;SDS011;13153;52.316;21.166;2024-03-22T08:29:39;55.75;;;29.65;;
25207;SDS011;13153;52.316;21.166;2024-03-22T08:32:06;51.55;;;28.35;;
25207;SDS011;13153;52.316;21.166;2024-03-22T08:34:33;57.90;;;29.90;;
25207;SDS011;13153;52.316;21.166;2024-03-22T08:37:00;54.65;;;29.67;;
25207;SDS011;13153;52.316;21.166;2024-03-22T08:39:28;55.63;;;31.27;;
25207;SDS011;13153;52.316;21.166;2024-03-22T08:41:56;55.95;;;29.15;;
25207;SDS011;13153;52.316;21.166;2024-03-22T08:44:23;55.33;;;28.95;;
25207;SDS011;13153;52.316;21.166;2024-03-22T08:46:49;57.58;;;28.23;;
25207;SDS011;13153;52.316;21.166;2024-03-22T08:49:15;53.63;;;28.23;;
25207;SDS011;13153;52.316;21.166;2024-03-22T08:51:44;57.35;;;29.80;;
25207;SDS011;13153;52.316;21.166;2024-03-22T08:54:11;58.95;;;29.80;;
25207;SDS011;13153;52.316;21.166;2024-03-22T08:56:37;57.80;;;28.35;;
25207;SDS011;13153;52.316;21.166;2024-03-22T08:59:03;51.78;;;28.92;;
25207;SDS011;13153;52.316;21.166;2024-03-22T09:01:30;54.78;;;28.75;;
25207;SDS011;13153;52.316;21.166;2024-03-22T09:03:57;56.58;;;30.05;;
25207;SDS011;13153;52.316;21.166;2024-03-22T09:06:24;61.28;;;31.00;;
25207;SDS011;13153;52.316;21.166;2024-03-22T09:08:51;58.20;;;29.20;;
25207;SDS011;13153;52.316;21.166;2024-03-22T09:11:20;51.53;;;29.17;;
25207;SDS011;13153;52.316;21.166;2024-03-22T09:13:46;52.85;;;28.25;;
25207;SDS011;13153;52.316;21.166;2024-03-22T09:16:16;53.08;;;28.63;;
25207;SDS011;13153;52.316;21.166;2024-03-22T09:18:43;54.53;;;29.55;;
25207;SDS011;13153;52.316;21.166;2024-03-22T09:21:10;53.13;;;28.83;;
25207;SDS011;13153;52.316;21.166;2024-03-22T09:23:37;55.88;;;31.98;;
25207;SDS011;13153;52.316;21.166;2024-03-22T09:26:05;54.92;;;31.90;;
25207;SDS011;13153;52.316;21.166;2024-03-22T09:28:31;55.63;;;30.77;;
25207;SDS011;13153;52.316;21.166;2024-03-22T09:30:58;56.70;;;32.90;;
25207;SDS011;13153;52.316;21.166;2024-03-22T09:33:34;52.88;;;30.63;;
25207;SDS011;13153;52.316;21.166;2024-03-22T09:36:01;53.92;;;30.67;;
25207;SDS011;13153;52.316;21.166;2024-03-22T09:38:28;49.05;;;28.17;;
25207;SDS011;13153;52.316;21.166;2024-03-22T09:40:55;53.15;;;29.77;;
25207;SDS011;13153;52.316;21.166;2024-03-22T09:43:21;50.50;;;29.98;;
25207;SDS011;13153;52.316;21.166;2024-03-22T09:45:49;46.88;;;27.42;;
25207;SDS011;13153;52.316;21.166;2024-03-22T09:48:19;52.08;;;28.67;;
25207;SDS011;13153;52.316;21.166;2024-03-22T09:50:46;50.65;;;30.08;;
25207;SDS011;13153;52.316;21.166;2024-03-22T09:53:13;47.30;;;28.08;;
25207;SDS011;13153;52.316;21.166;2024-03-22T09:55:44;51.20;;;30.40;;
25207;SDS011;13153;52.316;21.166;2024-03-22T09:58:13;50.63;;;29.02;;
25207;SDS011;13153;52.316;21.166;2024-03-22T10:00:41;48.53;;;27.25;;
25207;SDS011;13153;52.316;21.166;2024-03-22T10:03:08;46.97;;;28.75;;
25207;SDS011;13153;52.316;21.166;2024-03-22T10:05:36;46.22;;;26.85;;
25207;SDS011;13153;52.316;21.166;2024-03-22T10:08:05;41.92;;;25.33;;
25207;SDS011;13153;52.316;21.166;2024-03-22T10:10:32;46.72;;;26.52;;
25207;SDS011;13153;52.316;21.166;2024-03-22T10:13:03;44.35;;;26.52;;
25207;SDS011;13153;52.316;21.166;2024-03-22T10:15:32;43.97;;;26.02;;
25207;SDS011;13153;52.316;21.166;2024-03-22T10:17:59;43.80;;;26.35;;
25207;SDS011;13153;52.316;21.166;2024-03-22T10:20:25;41.08;;;24.38;;
25207;SDS011;13153;52.316;21.166;2024-03-22T10:22:56;38.67;;;23.10;;
25207;SDS011;13153;52.316;21.166;2024-03-22T10:25:25;39.67;;;23.95;;
25207;SDS011;13153;52.316;21.166;2024-03-22T10:27:55;41.67;;;23.63;;
25207;SDS011;13153;52.316;21.166;2024-03-22T10:30:25;39.67;;;23.08;;
25207;SDS011;13153;52.316;21.166;2024-03-22T10:32:52;38.58;;;23.58;;
25207;SDS011;13153;52.316;21.166;2024-03-22T10:35:19;38.17;;;22.42;;
25207;SDS011;13153;52.316;21.166;2024-03-22T10:37:46;36.47;;;21.85;;
25207;SDS011;13153;52.316;21.166;2024-03-22T10:40:14;36.25;;;22.80;;
25207;SDS011;13153;52.316;21.166;2024-03-22T10:42:41;39.25;;;22.70;;
25207;SDS011;13153;52.316;21.166;2024-03-22T10:45:09;38.63;;;22.23;;
25207;SDS011;13153;52.316;21.166;2024-03-22T10:47:37;36.55;;;22.60;;
25207;SDS011;13153;52.316;21.166;2024-03-22T10:50:09;34.17;;;21.60;;
25207;SDS011;13153;52.316;21.166;2024-03-22T10:55:28;36.20;;;22.35;;
25207;SDS011;13153;52.316;21.166;2024-03-22T10:58:00;36.28;;;22.23;;
25207;SDS011;13153;52.316;21.166;2024-03-22T11:00:31;36.42;;;22.13;;
25207;SDS011;13153;52.316;21.166;2024-03-22T11:03:04;37.20;;;21.80;;
25207;SDS011;13153;52.316;21.166;2024-03-22T11:05:30;33.45;;;20.95;;
25207;SDS011;13153;52.316;21.166;2024-03-22T11:10:30;34.78;;;20.60;;
25207;SDS011;13153;52.316;21.166;2024-03-22T11:13:05;36.05;;;21.63;;
25207;SDS011;13153;52.316;21.166;2024-03-22T11:15:34;35.22;;;22.65;;
25207;SDS011;13153;52.316;21.166;2024-03-22T11:18:00;38.33;;;23.60;;
25207;SDS011;13153;52.316;21.166;2024-03-22T11:20:27;39.70;;;23.00;;
25207;SDS011;13153;52.316;21.166;2024-03-22T11:22:55;38.90;;;22.65;;
25207;SDS011;13153;52.316;21.166;2024-03-22T11:25:22;38.20;;;22.48;;
25207;SDS011;13153;52.316;21.166;2024-03-22T11:27:48;40.55;;;23.33;;
25207;SDS011;13153;52.316;21.166;2024-03-22T11:30:15;35.72;;;22.15;;
25207;SDS011;13153;52.316;21.166;2024-03-22T11:32:41;35.08;;;22.05;;
25207;SDS011;13153;52.316;21.166;2024-03-22T11:35:11;33.83;;;21.20;;
25207;SDS011;13153;52.316;21.166;2024-03-22T11:37:39;37.17;;;23.27;;
25207;SDS011;13153;52.316;21.166;2024-03-22T11:40:06;31.10;;;20.23;;
25207;SDS011;13153;52.316;21.166;2024-03-22T11:42:36;34.95;;;21.23;;
25207;SDS011;13153;52.316;21.166;2024-03-22T11:45:05;36.28;;;21.20;;
25207;SDS011;13153;52.316;21.166;2024-03-22T11:47:35;30.30;;;19.45;;
25207;SDS011;13153;52.316;21.166;2024-03-22T11:50:02;35.33;;;21.65;;
25207;SDS011;13153;52.316;21.166;2024-03-22T11:52:30;31.75;;;21.30;;
25207;SDS011;13153;52.316;21.166;2024-03-22T11:54:56;31.98;;;22.23;;
25207;SDS011;13153;52.316;21.166;2024-03-22T11:57:23;34.75;;;22.40;;
25207;SDS011;13153;52.316;21.166;2024-03-22T11:59:50;36.22;;;23.23;;
25207;SDS011;13153;52.316;21.166;2024-03-22T12:02:17;33.85;;;21.52;;
25207;SDS011;13153;52.316;21.166;2024-03-22T12:04:45;34.50;;;22.80;;
25207;SDS011;13153;52.316;21.166;2024-03-22T12:07:15;34.28;;;22.42;;
25207;SDS011;13153;52.316;21.166;2024-03-22T12:09:46;39.03;;;24.35;;
25207;SDS011;13153;52.316;21.166;2024-03-22T12:12:12;36.80;;;25.33;;
25207;SDS011;13153;52.316;21.166;2024-03-22T12:14:39;40.50;;;26.58;;
25207;SDS011;13153;52.316;21.166;2024-03-22T12:17:05;39.33;;;25.67;;
25207;SDS011;13153;52.316;21.166;2024-03-22T12:19:32;34.92;;;23.40;;
25207;SDS011;13153;52.316;21.166;2024-03-22T12:21:59;32.45;;;21.83;;
25207;SDS011;13153;52.316;21.166;2024-03-22T12:24:25;35.90;;;23.30;;
25207;SDS011;13153;52.316;21.166;2024-03-22T12:26:54;33.25;;;20.50;;
25207;SDS011;13153;52.316;21.166;2024-03-22T12:29:20;33.70;;;19.05;;
25207;SDS011;13153;52.316;21.166;2024-03-22T12:31:47;29.38;;;18.85;;
25207;SDS011;13153;52.316;21.166;2024-03-22T12:34:13;27.27;;;17.38;;
25207;SDS011;13153;52.316;21.166;2024-03-22T12:36:39;27.88;;;18.88;;
25207;SDS011;13153;52.316;21.166;2024-03-22T12:39:05;26.52;;;17.15;;
25207;SDS011;13153;52.316;21.166;2024-03-22T12:41:31;26.55;;;17.33;;
25207;SDS011;13153;52.316;21.166;2024-03-22T12:43:58;25.55;;;16.25;;
25207;SDS011;13153;52.316;21.166;2024-03-22T12:46:25;26.38;;;16.23;;
25207;SDS011;13153;52.316;21.166;2024-03-22T12:48:52;24.90;;;15.40;;
25207;SDS011;13153;52.316;21.166;2024-03-22T12:51:19;25.48;;;15.57;;
25207;SDS011;13153;52.316;21.166;2024-03-22T12:53:45;27.15;;;16.35;;
25207;SDS011;13153;52.316;21.166;2024-03-22T12:56:11;21.77;;;14.77;;
25207;SDS011;13153;52.316;21.166;2024-03-22T12:58:37;24.40;;;15.80;;
25207;SDS011;13153;52.316;21.166;2024-03-22T13:01:04;22.90;;;14.52;;
25207;SDS011;13153;52.316;21.166;2024-03-22T13:03:34;28.35;;;17.92;;
25207;SDS011;13153;52.316;21.166;2024-03-22T13:06:00;29.20;;;18.42;;
25207;SDS011;13153;52.316;21.166;2024-03-22T13:08:26;30.30;;;18.98;;
25207;SDS011;13153;52.316;21.166;2024-03-22T13:10:52;32.30;;;19.92;;
25207;SDS011;13153;52.316;21.166;2024-03-22T13:13:18;29.25;;;17.42;;
25207;SDS011;13153;52.316;21.166;2024-03-22T13:15:45;24.83;;;16.05;;
25207;SDS011;13153;52.316;21.166;2024-03-22T13:18:12;25.50;;;15.30;;
25207;SDS011;13153;52.316;21.166;2024-03-22T13:20:39;26.08;;;15.10;;
25207;SDS011;13153;52.316;21.166;2024-03-22T13:23:05;25.65;;;14.88;;
25207;SDS011;13153;52.316;21.166;2024-03-22T13:25:34;28.05;;;15.75;;
25207;SDS011;13153;52.316;21.166;2024-03-22T13:28:02;24.10;;;14.43;;
25207;SDS011;13153;52.316;21.166;2024-03-22T13:30:30;29.85;;;18.67;;
25207;SDS011;13153;52.316;21.166;2024-03-22T13:32:57;29.00;;;18.10;;
25207;SDS011;13153;52.316;21.166;2024-03-22T13:35:24;26.52;;;16.98;;
25207;SDS011;13153;52.316;21.166;2024-03-22T13:37:51;24.63;;;15.60;;
25207;SDS011;13153;52.316;21.166;2024-03-22T13:40:17;23.02;;;14.98;;
25207;SDS011;13153;52.316;21.166;2024-03-22T13:42:44;25.20;;;15.35;;
25207;SDS011;13153;52.316;21.166;2024-03-22T13:45:10;21.27;;;14.30;;
25207;SDS011;13153;52.316;21.166;2024-03-22T13:47:37;25.42;;;15.55;;
25207;SDS011;13153;52.316;21.166;2024-03-22T13:50:05;22.45;;;14.30;;
25207;SDS011;13153;52.316;21.166;2024-03-22T13:52:35;24.15;;;15.82;;
25207;SDS011;13153;52.316;21.166;2024-03-22T13:55:03;24.10;;;15.48;;
25207;SDS011;13153;52.316;21.166;2024-03-22T13:57:30;23.45;;;14.98;;
25207;SDS011;13153;52.316;21.166;2024-03-22T13:59:56;20.42;;;14.10;;
25207;SDS011;13153;52.316;21.166;2024-03-22T14:02:24;24.42;;;15.25;;
25207;SDS011;13153;52.316;21.166;2024-03-22T14:04:50;22.55;;;15.02;;
25207;SDS011;13153;52.316;21.166;2024-03-22T14:07:17;20.65;;;13.95;;
25207;SDS011;13153;52.316;21.166;2024-03-22T14:09:44;27.52;;;16.38;;
25207;SDS011;13153;52.316;21.166;2024-03-22T14:12:10;23.02;;;15.48;;
25207;SDS011;13153;52.316;21.166;2024-03-22T14:14:36;24.75;;;15.30;;